sensor_id;sensor_type;location;lat;lon;timestamp;P1;durP1;ratioP1;P2;durP2;ratioP2
29934;SDS011;19905;53.370;-6.314;2023-08-06T00:00:49;6.03;;;1.83;;
29934;SDS011;19905;53.370;-6.314;2023-08-06T00:03:19;3.67;;;1.75;;
29934;SDS011;19905;53.370;-6.314;2023-08-06T00:05:47;4.68;;;1.80;;
29934;SDS011;19905;53.370;-6.314;2023-08-06T00:08:15;4.25;;;1.88;;
29934;SDS011;19905;53.370;-6.314;2023-08-06T00:10:44;5.95;;;2.15;;
29934;SDS011;19905;53.370;-6.314;2023-08-06T00:13:15;5.35;;;2.10;;
29934;SDS011;19905;53.370;-6.314;2023-08-06T00:15:44;6.57;;;2.05;;
29934;SDS011;19905;53.370;-6.314;2023-08-06T00:18:14;8.52;;;2.08;;
29934;SDS011;19905;53.370;-6.314;2023-08-06T00:20:43;5.03;;;2.10;;
29934;SDS011;19905;53.370;-6.314;2023-08-06T00:23:12;5.25;;;1.95;;
29934;SDS011;19905;53.370;-6.314;2023-08-06T00:25:40;7.10;;;1.98;;
29934;SDS011;19905;53.370;-6.314;2023-08-06T00:28:09;7.60;;;2.22;;
29934;SDS011;19905;53.370;-6.314;2023-08-06T00:30:38;5.43;;;2.10;;
29934;SDS011;19905;53.370;-6.314;2023-08-06T00:33:06;7.85;;;2.10;;
29934;SDS011;19905;53.370;-6.314;2023-08-06T00:35:36;7.18;;;1.90;;
29934;SDS011;19905;53.370;-6.314;2023-08-06T00:38:05;8.55;;;2.42;;
29934;SDS011;19905;53.370;-6.314;2023-08-06T00:40:34;5.82;;;2.10;;
29934;SDS011;19905;53.370;-6.314;2023-08-06T00:43:02;11.07;;;2.50;;
29934;SDS011;19905;53.370;-6.314;2023-08-06T00:45:31;8.13;;;2.50;;
29934;SDS011;19905;53.370;-6.314;2023-08-06T00:48:04;6.25;;;2.30;;
29934;SDS011;19905;53.370;-6.314;2023-08-06T00:50:33;6.28;;;2.47;;
29934;SDS011;19905;53.370;-6.314;2023-08-06T00:53:04;5.20;;;2.38;;
29934;SDS011;19905;53.370;-6.314;2023-08-06T00:55:32;9.30;;;2.70;;
29934;SDS011;19905;53.370;-6.314;2023-08-06T00:58:01;5.80;;;2.55;;
29934;SDS011;19905;53.370;-6.314;2023-08-06T01:00:30;5.90;;;2.38;;
29934;SDS011;19905;53.370;-6.314;2023-08-06T01:02:59;8.38;;;2.20;;
29934;SDS011;19905;53.370;-6.314;2023-08-06T01:05:28;7.13;;;2.58;;
29934;SDS011;19905;53.370;-6.314;2023-08-06T01:08:02;6.75;;;2.60;;
29934;SDS011;19905;53.370;-6.314;2023-08-06T01:10:48;5.85;;;2.40;;
29934;SDS011;19905;53.370;-6.314;2023-08-06T01:13:27;7.38;;;2.17;;
29934;SDS011;19905;53.370;-6.314;2023-08-06T01:16:00;8.48;;;2.45;;
29934;SDS011;19905;53.370;-6.314;2023-08-06T01:18:32;7.22;;;2.78;;
29934;SDS011;19905;53.370;-6.314;2023-08-06T01:21:03;6.03;;;3.10;;
29934;SDS011;19905;53.370;-6.314;2023-08-06T01:23:32;10.75;;;2.75;;
29934;SDS011;19905;53.370;-6.314;2023-08-06T01:26:02;9.98;;;3.30;;
29934;SDS011;19905;53.370;-6.314;2023-08-06T01:28:40;8.98;;;2.75;;
29934;SDS011;19905;53.370;-6.314;2023-08-06T01:31:14;11.20;;;3.22;;
29934;SDS011;19905;53.370;-6.314;2023-08-06T01:33:49;8.48;;;3.28;;
29934;SDS011;19905;53.370;-6.314;2023-08-06T01:36:22;10.30;;;2.92;;
29934;SDS011;19905;53.370;-6.314;2023-08-06T01:38:52;10.73;;;2.83;;
29934;SDS011;19905;53.370;-6.314;2023-08-06T01:41:21;7.63;;;3.08;;
29934;SDS011;19905;53.370;-6.314;2023-08-06T01:43:49;10.93;;;3.17;;
29934;SDS011;19905;53.370;-6.314;2023-08-06T01:46:18;9.30;;;3.17;;
29934;SDS011;19905;53.370;-6.314;2023-08-06T01:48:46;9.07;;;3.25;;
29934;SDS011;19905;53.370;-6.314;2023-08-06T01:51:15;9.30;;;3.10;;
29934;SDS011;19905;53.370;-6.314;2023-08-06T01:53:45;7.40;;;3.10;;
29934;SDS011;19905;53.370;-6.314;2023-08-06T01:56:13;7.05;;;3.10;;
29934;SDS011;19905;53.370;-6.314;2023-08-06T01:58:42;9.07;;;3.60;;
29934;SDS011;19905;53.370;-6.314;2023-08-06T02:01:11;6.72;;;2.83;;
29934;SDS011;19905;53.370;-6.314;2023-08-06T02:03:39;8.52;;;2.90;;
29934;SDS011;19905;53.370;-6.314;2023-08-06T02:06:08;8.73;;;2.85;;
29934;SDS011;19905;53.370;-6.314;2023-08-06T02:08:36;8.35;;;3.00;;
29934;SDS011;19905;53.370;-6.314;2023-08-06T02:11:08;9.23;;;3.13;;
29934;SDS011;19905;53.370;-6.314;2023-08-06T02:13:36;7.63;;;3.10;;
29934;SDS011;19905;53.370;-6.314;2023-08-06T02:16:06;5.90;;;2.92;;
29934;SDS011;19905;53.370;-6.314;2023-08-06T02:18:36;8.13;;;3.15;;
29934;SDS011;19905;53.370;-6.314;2023-08-06T02:21:04;15.30;;;3.42;;
29934;SDS011;19905;53.370;-6.314;2023-08-06T02:23:33;9.82;;;3.20;;
29934;SDS011;19905;53.370;-6.314;2023-08-06T02:26:02;10.32;;;3.33;;
29934;SDS011;19905;53.370;-6.314;2023-08-06T02:28:33;14.73;;;3.35;;
29934;SDS011;19905;53.370;-6.314;2023-08-06T02:31:02;7.63;;;3.20;;
29934;SDS011;19905;53.370;-6.314;2023-08-06T02:33:30;12.88;;;3.38;;
29934;SDS011;19905;53.370;-6.314;2023-08-06T02:35:59;6.90;;;3.30;;
29934;SDS011;19905;53.370;-6.314;2023-08-06T02:38:31;9.32;;;3.55;;
29934;SDS011;19905;53.370;-6.314;2023-08-06T02:41:02;9.68;;;3.55;;
29934;SDS011;19905;53.370;-6.314;2023-08-06T02:43:31;9.38;;;3.50;;
29934;SDS011;19905;53.370;-6.314;2023-08-06T02:46:01;7.50;;;3.35;;
29934;SDS011;19905;53.370;-6.314;2023-08-06T02:48:30;9.93;;;3.67;;
29934;SDS011;19905;53.370;-6.314;2023-08-06T02:50:58;9.77;;;3.60;;
29934;SDS011;19905;53.370;-6.314;2023-08-06T02:53:27;9.32;;;3.50;;
29934;SDS011;19905;53.370;-6.314;2023-08-06T02:55:56;9.82;;;3.65;;
29934;SDS011;19905;53.370;-6.314;2023-08-06T02:58:25;10.30;;;3.40;;
29934;SDS011;19905;53.370;-6.314;2023-08-06T03:01:02;8.90;;;3.22;;
29934;SDS011;19905;53.370;-6.314;2023-08-06T03:03:32;8.20;;;3.38;;
29934;SDS011;19905;53.370;-6.314;2023-08-06T03:06:01;11.57;;;3.50;;
29934;SDS011;19905;53.370;-6.314;2023-08-06T03:08:30;11.02;;;3.50;;
29934;SDS011;19905;53.370;-6.314;2023-08-06T03:10:59;8.73;;;3.55;;
29934;SDS011;19905;53.370;-6.314;2023-08-06T03:13:27;10.40;;;3.53;;
29934;SDS011;19905;53.370;-6.314;2023-08-06T03:15:56;9.20;;;3.40;;
29934;SDS011;19905;53.370;-6.314;2023-08-06T03:18:27;10.55;;;3.38;;
29934;SDS011;19905;53.370;-6.314;2023-08-06T03:20:56;10.55;;;3.67;;
29934;SDS011;19905;53.370;-6.314;2023-08-06T03:23:24;11.90;;;3.47;;
29934;SDS011;19905;53.370;-6.314;2023-08-06T03:25:53;12.48;;;3.50;;
29934;SDS011;19905;53.370;-6.314;2023-08-06T03:28:21;14.50;;;3.28;;
29934;SDS011;19905;53.370;-6.314;2023-08-06T03:30:58;8.55;;;3.17;;
29934;SDS011;19905;53.370;-6.314;2023-08-06T03:33:28;9.35;;;3.80;;
29934;SDS011;19905;53.370;-6.314;2023-08-06T03:35:57;10.98;;;3.25;;
29934;SDS011;19905;53.370;-6.314;2023-08-06T03:38:26;14.88;;;3.50;;
29934;SDS011;19905;53.370;-6.314;2023-08-06T03:40:55;6.53;;;2.70;;
29934;SDS011;19905;53.370;-6.314;2023-08-06T03:43:24;7.80;;;3.28;;
29934;SDS011;19905;53.370;-6.314;2023-08-06T03:45:52;6.88;;;3.05;;
29934;SDS011;19905;53.370;-6.314;2023-08-06T03:48:21;12.07;;;3.47;;
29934;SDS011;19905;53.370;-6.314;2023-08-06T03:50:51;9.10;;;3.70;;
29934;SDS011;19905;53.370;-6.314;2023-08-06T03:53:20;10.63;;;3.65;;
29934;SDS011;19905;53.370;-6.314;2023-08-06T03:55:49;8.05;;;3.13;;
29934;SDS011;19905;53.370;-6.314;2023-08-06T03:58:17;8.80;;;3.63;;
29934;SDS011;19905;53.370;-6.314;2023-08-06T04:00:46;8.75;;;3.40;;
29934;SDS011;19905;53.370;-6.314;2023-08-06T04:03:15;7.63;;;3.70;;
29934;SDS011;19905;53.370;-6.314;2023-08-06T04:05:43;8.80;;;3.70;;
29934;SDS011;19905;53.370;-6.314;2023-08-06T04:08:13;9.23;;;3.40;;
29934;SDS011;19905;53.370;-6.314;2023-08-06T04:10:41;10.98;;;3.30;;
29934;SDS011;19905;53.370;-6.314;2023-08-06T04:13:11;7.43;;;3.20;;
29934;SDS011;19905;53.370;-6.314;2023-08-06T04:15:40;8.02;;;3.58;;
29934;SDS011;19905;53.370;-6.314;2023-08-06T04:18:08;7.95;;;3.13;;
29934;SDS011;19905;53.370;-6.314;2023-08-06T04:20:42;8.43;;;3.30;;
29934;SDS011;19905;53.370;-6.314;2023-08-06T04:23:12;11.43;;;3.55;;
29934;SDS011;19905;53.370;-6.314;2023-08-06T04:25:41;8.43;;;3.15;;
29934;SDS011;19905;53.370;-6.314;2023-08-06T04:28:10;8.27;;;3.45;;
29934;SDS011;19905;53.370;-6.314;2023-08-06T04:30:38;9.20;;;3.20;;
29934;SDS011;19905;53.370;-6.314;2023-08-06T04:33:07;8.77;;;3.40;;
29934;SDS011;19905;53.370;-6.314;2023-08-06T04:35:36;12.02;;;3.50;;
29934;SDS011;19905;53.370;-6.314;2023-08-06T04:38:04;7.68;;;3.40;;
29934;SDS011;19905;53.370;-6.314;2023-08-06T04:40:35;10.90;;;3.85;;
29934;SDS011;19905;53.370;-6.314;2023-08-06T04:43:04;10.95;;;3.83;;
29934;SDS011;19905;53.370;-6.314;2023-08-06T04:45:32;7.95;;;3.25;;
29934;SDS011;19905;53.370;-6.314;2023-08-06T04:48:01;8.10;;;3.65;;
29934;SDS011;19905;53.370;-6.314;2023-08-06T04:50:30;12.60;;;3.75;;
29934;SDS011;19905;53.370;-6.314;2023-08-06T04:52:58;11.23;;;3.80;;
29934;SDS011;19905;53.370;-6.314;2023-08-06T04:55:27;9.32;;;3.40;;
29934;SDS011;19905;53.370;-6.314;2023-08-06T04:57:57;12.10;;;3.70;;
29934;SDS011;19905;53.370;-6.314;2023-08-06T05:00:25;9.38;;;3.80;;
29934;SDS011;19905;53.370;-6.314;2023-08-06T05:02:54;11.25;;;3.65;;
29934;SDS011;19905;53.370;-6.314;2023-08-06T05:05:23;7.82;;;3.22;;
29934;SDS011;19905;53.370;-6.314;2023-08-06T05:07:51;10.20;;;3.60;;
29934;SDS011;19905;53.370;-6.314;2023-08-06T05:10:24;10.20;;;3.70;;
29934;SDS011;19905;53.370;-6.314;2023-08-06T05:12:52;10.43;;;4.07;;
29934;SDS011;19905;53.370;-6.314;2023-08-06T05:15:23;8.38;;;3.90;;
29934;SDS011;19905;53.370;-6.314;2023-08-06T05:17:53;16.35;;;3.50;;
29934;SDS011;19905;53.370;-6.314;2023-08-06T05:20:21;8.35;;;3.60;;
29934;SDS011;19905;53.370;-6.314;2023-08-06T05:22:50;9.15;;;3.83;;
29934;SDS011;19905;53.370;-6.314;2023-08-06T05:25:18;12.77;;;3.50;;
29934;SDS011;19905;53.370;-6.314;2023-08-06T05:27:47;8.52;;;3.88;;
29934;SDS011;19905;53.370;-6.314;2023-08-06T05:30:15;8.85;;;4.05;;
29934;SDS011;19905;53.370;-6.314;2023-08-06T05:32:46;7.97;;;3.83;;
29934;SDS011;19905;53.370;-6.314;2023-08-06T05:35:14;9.07;;;3.20;;
29934;SDS011;19905;53.370;-6.314;2023-08-06T05:37:43;10.23;;;3.80;;
29934;SDS011;19905;53.370;-6.314;2023-08-06T05:40:11;13.77;;;3.85;;
29934;SDS011;19905;53.370;-6.314;2023-08-06T05:42:40;9.60;;;3.70;;
29934;SDS011;19905;53.370;-6.314;2023-08-06T05:45:09;12.02;;;4.25;;
29934;SDS011;19905;53.370;-6.314;2023-08-06T05:47:37;9.00;;;3.60;;
29934;SDS011;19905;53.370;-6.314;2023-08-06T05:50:08;10.15;;;3.33;;
29934;SDS011;19905;53.370;-6.314;2023-08-06T05:52:36;9.80;;;3.28;;
29934;SDS011;19905;53.370;-6.314;2023-08-06T05:55:05;12.55;;;3.25;;
29934;SDS011;19905;53.370;-6.314;2023-08-06T05:57:34;14.00;;;3.40;;
29934;SDS011;19905;53.370;-6.314;2023-08-06T06:00:03;13.45;;;2.97;;
29934;SDS011;19905;53.370;-6.314;2023-08-06T06:02:33;7.88;;;3.00;;
29934;SDS011;19905;53.370;-6.314;2023-08-06T06:05:02;8.23;;;3.53;;
29934;SDS011;19905;53.370;-6.314;2023-08-06T06:07:32;8.10;;;3.13;;
29934;SDS011;19905;53.370;-6.314;2023-08-06T06:10:01;9.68;;;3.50;;
29934;SDS011;19905;53.370;-6.314;2023-08-06T06:12:30;11.88;;;3.05;;
29934;SDS011;19905;53.370;-6.314;2023-08-06T06:14:58;10.43;;;3.60;;
29934;SDS011;19905;53.370;-6.314;2023-08-06T06:17:28;11.57;;;3.58;;
29934;SDS011;19905;53.370;-6.314;2023-08-06T06:19:57;11.18;;;3.00;;
29934;SDS011;19905;53.370;-6.314;2023-08-06T06:22:26;8.65;;;2.97;;
29934;SDS011;19905;53.370;-6.314;2023-08-06T06:24:56;11.65;;;3.38;;
29934;SDS011;19905;53.370;-6.314;2023-08-06T06:27:25;9.48;;;3.00;;
29934;SDS011;19905;53.370;-6.314;2023-08-06T06:29:54;10.48;;;3.50;;
29934;SDS011;19905;53.370;-6.314;2023-08-06T06:32:22;16.85;;;3.70;;
29934;SDS011;19905;53.370;-6.314;2023-08-06T06:34:51;11.75;;;3.35;;
29934;SDS011;19905;53.370;-6.314;2023-08-06T06:37:19;9.50;;;2.70;;
29934;SDS011;19905;53.370;-6.314;2023-08-06T06:39:48;11.85;;;3.00;;
29934;SDS011;19905;53.370;-6.314;2023-08-06T06:42:18;10.90;;;2.72;;
29934;SDS011;19905;53.370;-6.314;2023-08-06T06:44:47;9.52;;;3.28;;
29934;SDS011;19905;53.370;-6.314;2023-08-06T06:47:16;10.38;;;3.00;;
29934;SDS011;19905;53.370;-6.314;2023-08-06T06:49:44;16.10;;;3.65;;
29934;SDS011;19905;53.370;-6.314;2023-08-06T06:52:13;11.98;;;3.40;;
29934;SDS011;19905;53.370;-6.314;2023-08-06T06:54:42;10.82;;;4.03;;
29934;SDS011;19905;53.370;-6.314;2023-08-06T06:57:10;9.65;;;3.55;;
29934;SDS011;19905;53.370;-6.314;2023-08-06T06:59:40;11.20;;;3.22;;
29934;SDS011;19905;53.370;-6.314;2023-08-06T07:02:09;16.17;;;3.63;;
29934;SDS011;19905;53.370;-6.314;2023-08-06T07:04:38;12.30;;;3.50;;
29934;SDS011;19905;53.370;-6.314;2023-08-06T07:07:07;7.50;;;3.20;;
29934;SDS011;19905;53.370;-6.314;2023-08-06T07:09:35;11.82;;;4.03;;
29934;SDS011;19905;53.370;-6.314;2023-08-06T07:12:04;12.52;;;3.80;;
29934;SDS011;19905;53.370;-6.314;2023-08-06T07:14:33;9.05;;;2.88;;
29934;SDS011;19905;53.370;-6.314;2023-08-06T07:17:03;11.20;;;3.10;;
29934;SDS011;19905;53.370;-6.314;2023-08-06T07:19:33;8.65;;;2.70;;
29934;SDS011;19905;53.370;-6.314;2023-08-06T07:22:01;11.25;;;3.00;;
29934;SDS011;19905;53.370;-6.314;2023-08-06T07:24:30;9.98;;;2.90;;
29934;SDS011;19905;53.370;-6.314;2023-08-06T07:26:59;14.65;;;3.00;;
29934;SDS011;19905;53.370;-6.314;2023-08-06T07:29:27;11.52;;;2.97;;
29934;SDS011;19905;53.370;-6.314;2023-08-06T07:31:56;6.63;;;2.67;;
29934;SDS011;19905;53.370;-6.314;2023-08-06T07:34:26;9.32;;;2.85;;
29934;SDS011;19905;53.370;-6.314;2023-08-06T07:36:55;7.35;;;2.80;;
29934;SDS011;19905;53.370;-6.314;2023-08-06T07:39:23;11.35;;;3.13;;
29934;SDS011;19905;53.370;-6.314;2023-08-06T07:41:52;9.85;;;2.45;;
29934;SDS011;19905;53.370;-6.314;2023-08-06T07:44:21;8.32;;;3.10;;
29934;SDS011;19905;53.370;-6.314;2023-08-06T07:46:50;9.50;;;2.80;;
29934;SDS011;19905;53.370;-6.314;2023-08-06T07:49:19;7.70;;;2.75;;
29934;SDS011;19905;53.370;-6.314;2023-08-06T07:51:48;10.68;;;3.40;;
29934;SDS011;19905;53.370;-6.314;2023-08-06T07:54:19;10.40;;;2.88;;
29934;SDS011;19905;53.370;-6.314;2023-08-06T07:56:47;8.27;;;3.00;;
29934;SDS011;19905;53.370;-6.314;2023-08-06T07:59:15;9.20;;;3.22;;
29934;SDS011;19905;53.370;-6.314;2023-08-06T08:01:44;10.52;;;3.10;;
29934;SDS011;19905;53.370;-6.314;2023-08-06T08:04:13;11.25;;;2.60;;
29934;SDS011;19905;53.370;-6.314;2023-08-06T08:06:41;12.02;;;3.33;;
29934;SDS011;19905;53.370;-6.314;2023-08-06T08:09:11;8.38;;;3.22;;
29934;SDS011;19905;53.370;-6.314;2023-08-06T08:11:40;7.72;;;3.20;;
29934;SDS011;19905;53.370;-6.314;2023-08-06T08:14:09;9.77;;;3.28;;
29934;SDS011;19905;53.370;-6.314;2023-08-06T08:16:38;13.57;;;3.50;;
29934;SDS011;19905;53.370;-6.314;2023-08-06T08:19:06;7.28;;;3.50;;
29934;SDS011;19905;53.370;-6.314;2023-08-06T08:21:35;9.00;;;3.35;;
29934;SDS011;19905;53.370;-6.314;2023-08-06T08:24:04;6.28;;;3.53;;
29934;SDS011;19905;53.370;-6.314;2023-08-06T08:26:35;12.45;;;4.03;;
29934;SDS011;19905;53.370;-6.314;2023-08-06T08:29:04;9.35;;;3.70;;
29934;SDS011;19905;53.370;-6.314;2023-08-06T08:31:32;11.23;;;3.70;;
29934;SDS011;19905;53.370;-6.314;2023-08-06T08:34:05;10.75;;;3.40;;
29934;SDS011;19905;53.370;-6.314;2023-08-06T08:36:34;9.40;;;3.35;;
29934;SDS011;19905;53.370;-6.314;2023-08-06T08:39:03;8.38;;;3.00;;
29934;SDS011;19905;53.370;-6.314;2023-08-06T08:41:32;14.65;;;3.42;;
29934;SDS011;19905;53.370;-6.314;2023-08-06T08:44:03;8.30;;;2.90;;
29934;SDS011;19905;53.370;-6.314;2023-08-06T08:46:35;11.63;;;2.90;;
29934;SDS011;19905;53.370;-6.314;2023-08-06T08:49:05;10.57;;;2.63;;
29934;SDS011;19905;53.370;-6.314;2023-08-06T08:51:34;8.18;;;2.80;;
29934;SDS011;19905;53.370;-6.314;2023-08-06T08:54:03;10.95;;;2.70;;
29934;SDS011;19905;53.370;-6.314;2023-08-06T08:56:34;7.15;;;2.97;;
29934;SDS011;19905;53.370;-6.314;2023-08-06T08:59:03;13.25;;;2.50;;
29934;SDS011;19905;53.370;-6.314;2023-08-06T09:01:32;9.73;;;2.40;;
29934;SDS011;19905;53.370;-6.314;2023-08-06T09:04:02;10.40;;;2.53;;
29934;SDS011;19905;53.370;-6.314;2023-08-06T09:06:32;9.52;;;2.47;;
29934;SDS011;19905;53.370;-6.314;2023-08-06T09:09:06;7.47;;;2.55;;
29934;SDS011;19905;53.370;-6.314;2023-08-06T09:11:39;9.55;;;2.40;;
29934;SDS011;19905;53.370;-6.314;2023-08-06T09:14:12;7.90;;;2.55;;
29934;SDS011;19905;53.370;-6.314;2023-08-06T09:16:40;6.70;;;2.17;;
29934;SDS011;19905;53.370;-6.314;2023-08-06T09:19:09;6.97;;;2.15;;
29934;SDS011;19905;53.370;-6.314;2023-08-06T09:21:39;7.45;;;2.13;;
29934;SDS011;19905;53.370;-6.314;2023-08-06T09:24:08;9.70;;;2.53;;
29934;SDS011;19905;53.370;-6.314;2023-08-06T09:26:40;5.85;;;2.28;;
29934;SDS011;19905;53.370;-6.314;2023-08-06T09:29:10;8.20;;;2.30;;
29934;SDS011;19905;53.370;-6.314;2023-08-06T09:31:40;6.68;;;2.15;;
29934;SDS011;19905;53.370;-6.314;2023-08-06T09:34:10;6.82;;;1.92;;
29934;SDS011;19905;53.370;-6.314;2023-08-06T09:36:41;8.88;;;1.90;;
29934;SDS011;19905;53.370;-6.314;2023-08-06T09:39:12;5.72;;;1.83;;
29934;SDS011;19905;53.370;-6.314;2023-08-06T09:41:43;5.60;;;1.98;;
29934;SDS011;19905;53.370;-6.314;2023-08-06T09:44:18;6.80;;;2.35;;
29934;SDS011;19905;53.370;-6.314;2023-08-06T09:46:48;5.78;;;2.15;;
29934;SDS011;19905;53.370;-6.314;2023-08-06T09:49:18;10.20;;;2.00;;
29934;SDS011;19905;53.370;-6.314;2023-08-06T09:51:50;6.97;;;1.80;;
29934;SDS011;19905;53.370;-6.314;2023-08-06T09:54:23;6.00;;;2.17;;
29934;SDS011;19905;53.370;-6.314;2023-08-06T09:56:55;8.20;;;1.90;;
29934;SDS011;19905;53.370;-6.314;2023-08-06T09:59:25;6.47;;;1.67;;
29934;SDS011;19905;53.370;-6.314;2023-08-06T10:01:54;7.88;;;1.75;;
29934;SDS011;19905;53.370;-6.314;2023-08-06T10:04:23;6.57;;;1.67;;
29934;SDS011;19905;53.370;-6.314;2023-08-06T10:07:00;4.65;;;1.50;;
29934;SDS011;19905;53.370;-6.314;2023-08-06T10:09:30;6.88;;;1.67;;
29934;SDS011;19905;53.370;-6.314;2023-08-06T10:12:00;5.25;;;1.80;;
29934;SDS011;19905;53.370;-6.314;2023-08-06T10:14:30;5.10;;;1.50;;
29934;SDS011;19905;53.370;-6.314;2023-08-06T10:17:04;5.22;;;1.70;;
29934;SDS011;19905;53.370;-6.314;2023-08-06T10:19:40;6.55;;;2.05;;
29934;SDS011;19905;53.370;-6.314;2023-08-06T10:22:14;9.10;;;2.10;;
29934;SDS011;19905;53.370;-6.314;2023-08-06T10:24:51;3.90;;;1.60;;
29934;SDS011;19905;53.370;-6.314;2023-08-06T10:27:27;8.43;;;2.25;;
29934;SDS011;19905;53.370;-6.314;2023-08-06T10:32:59;4.32;;;1.50;;
29934;SDS011;19905;53.370;-6.314;2023-08-06T10:35:30;6.50;;;1.60;;
29934;SDS011;19905;53.370;-6.314;2023-08-06T10:38:03;5.35;;;1.45;;
29934;SDS011;19905;53.370;-6.314;2023-08-06T10:40:32;6.82;;;1.60;;
29934;SDS011;19905;53.370;-6.314;2023-08-06T10:43:05;2.58;;;1.27;;
29934;SDS011;19905;53.370;-6.314;2023-08-06T10:45:49;6.20;;;1.63;;
29934;SDS011;19905;53.370;-6.314;2023-08-06T10:48:29;4.47;;;1.50;;
29934;SDS011;19905;53.370;-6.314;2023-08-06T10:50:59;5.20;;;1.38;;
29934;SDS011;19905;53.370;-6.314;2023-08-06T10:53:28;5.10;;;1.80;;
29934;SDS011;19905;53.370;-6.314;2023-08-06T10:56:00;6.00;;;1.30;;
29934;SDS011;19905;53.370;-6.314;2023-08-06T10:58:32;2.63;;;0.82;;
29934;SDS011;19905;53.370;-6.314;2023-08-06T11:01:01;2.90;;;1.05;;
29934;SDS011;19905;53.370;-6.314;2023-08-06T11:03:30;3.90;;;0.90;;
29934;SDS011;19905;53.370;-6.314;2023-08-06T11:06:00;4.43;;;1.13;;
29934;SDS011;19905;53.370;-6.314;2023-08-06T11:08:32;2.47;;;0.88;;
29934;SDS011;19905;53.370;-6.314;2023-08-06T11:11:08;1.58;;;0.73;;
29934;SDS011;19905;53.370;-6.314;2023-08-06T11:13:39;3.38;;;0.80;;
29934;SDS011;19905;53.370;-6.314;2023-08-06T11:16:08;2.10;;;0.75;;
29934;SDS011;19905;53.370;-6.314;2023-08-06T11:18:37;6.43;;;1.08;;
29934;SDS011;19905;53.370;-6.314;2023-08-06T11:21:06;3.03;;;0.88;;
29934;SDS011;19905;53.370;-6.314;2023-08-06T11:23:34;1.95;;;0.68;;
29934;SDS011;19905;53.370;-6.314;2023-08-06T11:26:04;2.20;;;1.10;;
29934;SDS011;19905;53.370;-6.314;2023-08-06T11:28:33;3.63;;;1.25;;
29934;SDS011;19905;53.370;-6.314;2023-08-06T11:31:03;1.75;;;0.90;;
29934;SDS011;19905;53.370;-6.314;2023-08-06T11:33:32;1.92;;;0.90;;
29934;SDS011;19905;53.370;-6.314;2023-08-06T11:36:01;2.58;;;0.90;;
29934;SDS011;19905;53.370;-6.314;2023-08-06T11:38:29;2.90;;;1.10;;
29934;SDS011;19905;53.370;-6.314;2023-08-06T11:40:58;3.15;;;1.00;;
29934;SDS011;19905;53.370;-6.314;2023-08-06T11:43:29;1.85;;;0.90;;
29934;SDS011;19905;53.370;-6.314;2023-08-06T11:46:04;2.22;;;0.90;;
29934;SDS011;19905;53.370;-6.314;2023-08-06T11:48:32;1.10;;;0.85;;
29934;SDS011;19905;53.370;-6.314;2023-08-06T11:51:18;1.65;;;0.73;;
29934;SDS011;19905;53.370;-6.314;2023-08-06T11:53:48;3.17;;;0.80;;
29934;SDS011;19905;53.370;-6.314;2023-08-06T11:56:17;2.05;;;0.98;;
29934;SDS011;19905;53.370;-6.314;2023-08-06T11:58:47;2.63;;;0.90;;
29934;SDS011;19905;53.370;-6.314;2023-08-06T12:01:17;4.05;;;0.90;;
29934;SDS011;19905;53.370;-6.314;2023-08-06T12:03:46;4.43;;;0.80;;
29934;SDS011;19905;53.370;-6.314;2023-08-06T12:06:15;3.40;;;0.90;;
29934;SDS011;19905;53.370;-6.314;2023-08-06T12:08:44;2.03;;;0.80;;
29934;SDS011;19905;53.370;-6.314;2023-08-06T12:11:12;3.00;;;0.93;;
29934;SDS011;19905;53.370;-6.314;2023-08-06T12:13:41;3.45;;;1.00;;
29934;SDS011;19905;53.370;-6.314;2023-08-06T12:16:09;3.13;;;0.75;;
29934;SDS011;19905;53.370;-6.314;2023-08-06T12:18:39;3.42;;;1.08;;
29934;SDS011;19905;53.370;-6.314;2023-08-06T12:21:08;4.15;;;1.10;;
29934;SDS011;19905;53.370;-6.314;2023-08-06T12:23:36;10.93;;;1.40;;
29934;SDS011;19905;53.370;-6.314;2023-08-06T12:26:05;6.82;;;1.65;;
29934;SDS011;19905;53.370;-6.314;2023-08-06T12:28:34;12.18;;;4.82;;
29934;SDS011;19905;53.370;-6.314;2023-08-06T12:31:02;3.10;;;1.42;;
29934;SDS011;19905;53.370;-6.314;2023-08-06T12:33:31;3.47;;;1.10;;
29934;SDS011;19905;53.370;-6.314;2023-08-06T12:36:01;5.07;;;1.45;;
29934;SDS011;19905;53.370;-6.314;2023-08-06T12:38:30;6.78;;;2.28;;
29934;SDS011;19905;53.370;-6.314;2023-08-06T12:41:00;5.88;;;1.70;;
29934;SDS011;19905;53.370;-6.314;2023-08-06T12:43:28;5.72;;;1.80;;
29934;SDS011;19905;53.370;-6.314;2023-08-06T12:45:57;6.32;;;1.70;;
29934;SDS011;19905;53.370;-6.314;2023-08-06T12:48:26;4.95;;;1.50;;
29934;SDS011;19905;53.370;-6.314;2023-08-06T12:50:55;4.70;;;1.80;;
29934;SDS011;19905;53.370;-6.314;2023-08-06T12:53:25;5.07;;;1.98;;
29934;SDS011;19905;53.370;-6.314;2023-08-06T12:55:54;3.47;;;1.70;;
29934;SDS011;19905;53.370;-6.314;2023-08-06T12:58:22;4.18;;;1.63;;
29934;SDS011;19905;53.370;-6.314;2023-08-06T13:00:51;2.75;;;1.38;;
29934;SDS011;19905;53.370;-6.314;2023-08-06T13:03:21;4.13;;;1.65;;
29934;SDS011;19905;53.370;-6.314;2023-08-06T13:05:50;3.55;;;1.05;;
29934;SDS011;19905;53.370;-6.314;2023-08-06T13:08:18;5.95;;;1.88;;
29934;SDS011;19905;53.370;-6.314;2023-08-06T13:10:48;5.80;;;1.30;;
29934;SDS011;19905;53.370;-6.314;2023-08-06T13:13:17;3.20;;;1.00;;
29934;SDS011;19905;53.370;-6.314;2023-08-06T13:15:45;2.80;;;1.02;;
29934;SDS011;19905;53.370;-6.314;2023-08-06T13:18:14;1.63;;;0.73;;
29934;SDS011;19905;53.370;-6.314;2023-08-06T13:20:43;2.95;;;0.90;;
29934;SDS011;19905;53.370;-6.314;2023-08-06T13:23:14;2.55;;;0.98;;
29934;SDS011;19905;53.370;-6.314;2023-08-06T13:25:43;2.17;;;0.90;;
29934;SDS011;19905;53.370;-6.314;2023-08-06T13:28:13;3.00;;;0.82;;
29934;SDS011;19905;53.370;-6.314;2023-08-06T13:30:42;2.72;;;0.80;;
29934;SDS011;19905;53.370;-6.314;2023-08-06T13:33:11;1.92;;;0.80;;
29934;SDS011;19905;53.370;-6.314;2023-08-06T13:35:40;2.55;;;1.25;;
29934;SDS011;19905;53.370;-6.314;2023-08-06T13:38:08;228.13;;;9.10;;
29934;SDS011;19905;53.370;-6.314;2023-08-06T13:40:43;0.20;;;0.20;;
29934;SDS011;19905;53.370;-6.314;2023-08-06T13:43:16;0.95;;;0.30;;
29934;SDS011;19905;53.370;-6.314;2023-08-06T13:45:45;0.10;;;0.10;;
29934;SDS011;19905;53.370;-6.314;2023-08-06T13:50:46;0.20;;;0.20;;
29934;SDS011;19905;53.370;-6.314;2023-08-06T13:53:15;0.10;;;0.10;;
29934;SDS011;19905;53.370;-6.314;2023-08-06T13:55:44;0.30;;;0.22;;
29934;SDS011;19905;53.370;-6.314;2023-08-06T13:58:12;0.10;;;0.10;;
29934;SDS011;19905;53.370;-6.314;2023-08-06T14:00:43;0.20;;;0.20;;
29934;SDS011;19905;53.370;-6.314;2023-08-06T14:03:11;0.10;;;0.10;;
29934;SDS011;19905;53.370;-6.314;2023-08-06T14:05:41;0.20;;;0.20;;
29934;SDS011;19905;53.370;-6.314;2023-08-06T14:08:09;0.20;;;0.20;;
29934;SDS011;19905;53.370;-6.314;2023-08-06T14:10:38;0.13;;;0.13;;
29934;SDS011;19905;53.370;-6.314;2023-08-06T14:13:08;0.25;;;0.25;;
29934;SDS011;19905;53.370;-6.314;2023-08-06T14:15:37;0.40;;;0.30;;
29934;SDS011;19905;53.370;-6.314;2023-08-06T14:18:08;0.15;;;0.15;;
29934;SDS011;19905;53.370;-6.314;2023-08-06T14:20:40;0.20;;;0.20;;
29934;SDS011;19905;53.370;-6.314;2023-08-06T14:23:11;0.20;;;0.20;;
29934;SDS011;19905;53.370;-6.314;2023-08-06T14:25:39;0.30;;;0.20;;
29934;SDS011;19905;53.370;-6.314;2023-08-06T14:28:07;0.10;;;0.10;;
29934;SDS011;19905;53.370;-6.314;2023-08-06T14:30:36;0.10;;;0.10;;
29934;SDS011;19905;53.370;-6.314;2023-08-06T14:33:05;0.10;;;0.10;;
29934;SDS011;19905;53.370;-6.314;2023-08-06T14:35:54;0.15;;;0.15;;
29934;SDS011;19905;53.370;-6.314;2023-08-06T14:38:22;0.15;;;0.15;;
29934;SDS011;19905;53.370;-6.314;2023-08-06T14:40:51;0.22;;;0.22;;
29934;SDS011;19905;53.370;-6.314;2023-08-06T14:43:19;0.20;;;0.20;;
29934;SDS011;19905;53.370;-6.314;2023-08-06T14:45:48;0.10;;;0.10;;
29934;SDS011;19905;53.370;-6.314;2023-08-06T14:48:16;0.52;;;0.38;;
29934;SDS011;19905;53.370;-6.314;2023-08-06T14:50:45;0.10;;;0.10;;